createdAt,value
2022-09-25T05:33:47.621Z,10.72
2022-09-25T06:14:06.827Z,11.51
2022-09-25T06:34:10.493Z,11.38
2022-09-25T06:54:13.428Z,11.38
2022-09-25T07:14:16.209Z,11.77
2022-09-25T07:34:18.742Z,12.29
2022-09-25T07:54:21.346Z,12.46
2022-09-25T08:14:26.841Z,12.95
2022-09-25T08:34:41.126Z,13.42
2022-09-25T08:54:45.729Z,13.64
2022-09-25T09:14:48.851Z,14.34
2022-09-25T09:35:05.856Z,15.10
2022-09-25T09:55:09.176Z,15.31
2022-09-25T10:15:11.879Z,15.08
2022-09-25T10:35:14.601Z,16.15
2022-09-25T10:55:17.583Z,15.85
2022-09-25T11:15:21.081Z,17.97
2022-09-25T11:35:23.910Z,18.71
2022-09-25T11:55:27.538Z,19.90
2022-09-25T12:15:30.423Z,18.64
2022-09-25T12:35:33.072Z,18.12
2022-09-25T12:55:35.842Z,18.17
2022-09-25T13:15:38.663Z,18.64
2022-09-25T13:35:41.300Z,19.03
2022-09-25T13:55:43.859Z,18.68
2022-09-25T14:15:48.065Z,18.17
2022-09-25T14:35:50.667Z,18.03
2022-09-25T14:55:54.219Z,17.80
2022-09-25T15:16:16.006Z,17.43
2022-09-25T15:36:18.743Z,16.98
2022-09-25T15:56:21.242Z,16.37
2022-09-25T16:16:23.972Z,16.11
2022-09-25T16:36:26.483Z,14.59
2022-09-25T16:56:29.183Z,13.50
2022-09-25T17:16:32.158Z,13.06
2022-09-25T17:36:35.222Z,13.30
2022-09-25T17:56:38.873Z,13.50
2022-09-25T18:16:41.318Z,13.48
2022-09-25T18:36:43.885Z,12.71
2022-09-25T18:56:46.609Z,12.32
2022-09-25T19:16:49.401Z,11.69
2022-09-25T19:36:53.892Z,11.33
2022-09-25T19:56:56.905Z,11.20
2022-09-25T20:17:00.159Z,12.28
2022-09-25T20:37:02.848Z,12.64
2022-09-25T20:57:05.363Z,12.27
2022-09-25T21:17:08.361Z,11.73
2022-09-25T21:37:11.117Z,11.15
2022-09-25T21:57:20.641Z,10.69
2022-09-25T22:17:23.546Z,10.39
2022-09-25T23:18:06.778Z,9.32
2022-09-25T23:58:34.909Z,9.52
